Time;durP1;ratioP1;P1;durP2;ratioP2;P2;SDS_P1;SDS_P2;PMS_P1;PMS_P2;Temp;Humidity;BMP_temperature;BMP_pressure;BME280_temperature;BME280_humidity;BME280_pressure;Samples;Min_cycle;Max_cycle;Signal;HPM_P1;HPM_P2
2023/06/18 00:01:02;;;;;;;14.60;13.07;;;;;;;;;;5070073;28;20231;-53
2023/06/18 00:03:29;;;;;;;14.70;13.30;;;;;;;;;;5061756;28;20314;-53
2023/06/18 00:05:55;;;;;;;15.20;13.80;;;;;;;;;;5064342;28;20722;-54
2023/06/18 00:08:21;;;;;;;13.93;12.73;;;;;;;;;;5066078;28;20296;-53
2023/06/18 00:10:48;;;;;;;13.10;11.80;;;;;;;;;;5057485;28;20235;-53
2023/06/18 00:13:15;;;;;;;16.00;14.57;;;;;;;;;;5068087;28;20349;-53
2023/06/18 00:15:43;;;;;;;14.57;13.38;;;;;;;;;;5065819;28;20289;-53
2023/06/18 00:18:09;;;;;;;15.00;13.55;;;;;;;;;;5060724;28;20262;-53
2023/06/18 00:20:36;;;;;;;14.75;13.20;;;;;;;;;;5065410;28;20223;-53
2023/06/18 00:23:02;;;;;;;14.80;13.38;;;;;;;;;;5063686;28;20243;-53
2023/06/18 00:25:29;;;;;;;13.90;12.73;;;;;;;;;;5058654;28;20227;-53
2023/06/18 00:27:55;;;;;;;15.45;13.75;;;;;;;;;;5065545;28;20235;-55
2023/06/18 00:30:22;;;;;;;13.98;12.77;;;;;;;;;;5057896;28;20298;-53
2023/06/18 00:32:51;;;;;;;14.13;12.93;;;;;;;;;;5067730;28;20237;-53
2023/06/18 00:35:17;;;;;;;13.95;12.75;;;;;;;;;;5062120;28;20292;-53
2023/06/18 00:37:44;;;;;;;15.52;13.73;;;;;;;;;;5063229;28;20829;-52
2023/06/18 00:40:12;;;;;;;13.18;11.98;;;;;;;;;;5062822;28;20234;-52
2023/06/18 00:42:39;;;;;;;13.95;12.73;;;;;;;;;;5063776;28;20317;-53
2023/06/18 00:45:08;;;;;;;12.05;11.05;;;;;;;;;;5065660;28;20763;-52
2023/06/18 00:47:34;;;;;;;13.38;12.07;;;;;;;;;;5060719;28;20258;-53
2023/06/18 00:50:03;;;;;;;13.57;12.30;;;;;;;;;;5061640;28;20231;-53
2023/06/18 00:52:33;;;;;;;14.43;13.13;;;;;;;;;;5066164;28;20296;-53
2023/06/18 00:54:59;;;;;;;14.40;13.07;;;;;;;;;;5063210;28;20261;-53
2023/06/18 00:57:26;;;;;;;14.40;13.00;;;;;;;;;;5064816;28;20223;-55
2023/06/18 00:59:53;;;;;;;14.40;13.20;;;;;;;;;;5063791;28;20238;-54
2023/06/18 01:02:23;;;;;;;14.77;13.40;;;;;;;;;;5064770;28;20658;-53
2023/06/18 01:04:53;;;;;;;15.05;13.68;;;;;;;;;;5071728;28;20227;-52
2023/06/18 01:07:21;;;;;;;13.18;12.02;;;;;;;;;;5059688;28;20239;-53
2023/06/18 01:09:52;;;;;;;13.68;12.57;;;;;;;;;;5066613;28;20231;-54
2023/06/18 01:12:19;;;;;;;14.00;12.75;;;;;;;;;;5058418;28;20730;-52
2023/06/18 01:14:50;;;;;;;14.35;13.05;;;;;;;;;;5066448;28;20227;-54
2023/06/18 01:17:17;;;;;;;13.88;12.77;;;;;;;;;;5061275;28;20227;-52
2023/06/18 01:19:46;;;;;;;13.65;12.45;;;;;;;;;;5066421;28;20654;-53
2023/06/18 01:22:17;;;;;;;13.82;12.73;;;;;;;;;;5069273;28;20288;-54
2023/06/18 01:24:49;;;;;;;15.02;13.70;;;;;;;;;;5069951;28;20232;-52
2023/06/18 01:27:21;;;;;;;14.60;13.25;;;;;;;;;;5068759;28;20235;-52
2023/06/18 01:29:48;;;;;;;15.43;14.02;;;;;;;;;;5063321;28;20321;-53
2023/06/18 01:32:14;;;;;;;14.30;12.93;;;;;;;;;;5066263;28;20232;-53
2023/06/18 01:34:42;;;;;;;13.48;12.27;;;;;;;;;;5064620;28;20314;-53
2023/06/18 01:37:14;;;;;;;14.50;13.10;;;;;;;;;;5064465;28;20273;-53
2023/06/18 01:39:46;;;;;;;14.38;13.05;;;;;;;;;;5065738;28;20232;-53
2023/06/18 01:42:15;;;;;;;14.98;13.65;;;;;;;;;;5063492;28;20261;-53
2023/06/18 01:44:43;;;;;;;13.52;12.32;;;;;;;;;;5067969;28;20224;-54
2023/06/18 01:47:10;;;;;;;14.40;13.25;;;;;;;;;;5071467;28;20318;-52
2023/06/18 01:49:37;;;;;;;13.70;12.50;;;;;;;;;;5072814;28;20231;-52
2023/06/18 01:52:04;;;;;;;15.55;14.10;;;;;;;;;;5065757;28;20291;-55
2023/06/18 01:54:31;;;;;;;14.90;13.68;;;;;;;;;;5072295;28;20231;-58
2023/06/18 01:56:58;;;;;;;14.63;13.23;;;;;;;;;;5076683;28;20315;-56
2023/06/18 01:59:26;;;;;;;13.10;11.93;;;;;;;;;;5061615;28;20241;-53
2023/06/18 02:01:52;;;;;;;14.88;13.48;;;;;;;;;;5056296;28;20231;-53
2023/06/18 02:04:19;;;;;;;13.70;12.50;;;;;;;;;;5067518;28;20326;-53
2023/06/18 02:06:45;;;;;;;15.50;14.02;;;;;;;;;;5072665;28;20254;-53
2023/06/18 02:09:12;;;;;;;14.27;13.13;;;;;;;;;;5070451;28;20252;-53
2023/06/18 02:11:38;;;;;;;14.38;13.07;;;;;;;;;;5068421;28;20230;-52
2023/06/18 02:14:05;;;;;;;14.73;13.35;;;;;;;;;;5062916;28;20800;-52
2023/06/18 02:16:33;;;;;;;15.30;13.63;;;;;;;;;;5059971;28;20235;-53
2023/06/18 02:18:59;;;;;;;14.35;12.95;;;;;;;;;;5062319;28;20318;-53
2023/06/18 02:21:26;;;;;;;15.80;14.48;;;;;;;;;;5068011;28;20231;-54
2023/06/18 02:23:52;;;;;;;14.73;13.43;;;;;;;;;;5068977;28;20296;-53
2023/06/18 02:26:19;;;;;;;13.95;12.73;;;;;;;;;;5069010;28;20235;-53
2023/06/18 02:28:46;;;;;;;13.43;12.13;;;;;;;;;;5067146;28;20238;-52
2023/06/18 02:31:12;;;;;;;14.98;13.68;;;;;;;;;;5067835;28;20249;-52
2023/06/18 02:33:40;;;;;;;14.52;13.23;;;;;;;;;;5067968;28;20963;-52
2023/06/18 02:36:06;;;;;;;14.95;13.07;;;;;;;;;;5064774;28;20258;-52
2023/06/18 02:38:33;;;;;;;14.30;13.00;;;;;;;;;;5069199;28;20246;-53
2023/06/18 02:40:59;;;;;;;16.10;14.57;;;;;;;;;;5069589;28;20228;-53
2023/06/18 02:43:28;;;;;;;14.88;13.30;;;;;;;;;;5067943;28;20803;-53
2023/06/18 02:45:55;;;;;;;14.05;12.85;;;;;;;;;;5065542;28;20252;-51
2023/06/18 02:48:21;;;;;;;14.43;13.13;;;;;;;;;;5063153;28;20231;-52
2023/06/18 02:50:49;;;;;;;15.25;13.70;;;;;;;;;;5072289;28;20245;-52
2023/06/18 02:53:16;;;;;;;15.07;13.82;;;;;;;;;;5069071;28;20919;-53
2023/06/18 02:55:42;;;;;;;14.48;13.13;;;;;;;;;;5064504;28;20306;-53
2023/06/18 02:58:17;;;;;;;15.15;13.75;;;;;;;;;;5074847;28;20226;-53
2023/06/18 03:00:43;;;;;;;14.07;12.85;;;;;;;;;;5073576;28;20234;-53
2023/06/18 03:03:09;;;;;;;15.30;14.00;;;;;;;;;;5068450;28;20242;-53
2023/06/18 03:05:36;;;;;;;14.98;13.57;;;;;;;;;;5073203;28;20263;-54
2023/06/18 03:08:04;;;;;;;14.98;13.60;;;;;;;;;;5075765;28;20241;-52
2023/06/18 03:10:30;;;;;;;14.98;13.13;;;;;;;;;;5067352;28;20228;-53
2023/06/18 03:12:56;;;;;;;15.73;13.68;;;;;;;;;;5074021;28;20239;-53
2023/06/18 03:15:23;;;;;;;15.07;13.35;;;;;;;;;;5083118;28;20669;-54
2023/06/18 03:17:49;;;;;;;15.93;14.43;;;;;;;;;;5078892;28;20235;-59
2023/06/18 03:20:18;;;;;;;14.43;13.13;;;;;;;;;;5083563;28;20235;-54
2023/06/18 03:22:44;;;;;;;16.02;14.52;;;;;;;;;;5080889;28;20234;-55
2023/06/18 03:25:12;;;;;;;15.55;14.15;;;;;;;;;;5070924;28;20231;-54
2023/06/18 03:27:38;;;;;;;16.58;14.93;;;;;;;;;;5068284;28;20236;-53
2023/06/18 03:30:06;;;;;;;14.75;13.40;;;;;;;;;;5073502;28;20254;-52
2023/06/18 03:32:33;;;;;;;14.25;12.70;;;;;;;;;;5062384;28;20235;-54
2023/06/18 03:35:00;;;;;;;14.95;13.65;;;;;;;;;;5066575;28;20648;-53
2023/06/18 03:37:27;;;;;;;14.60;13.30;;;;;;;;;;5069406;28;20281;-53
2023/06/18 03:39:53;;;;;;;15.15;13.82;;;;;;;;;;5059509;28;20234;-54
2023/06/18 03:42:21;;;;;;;15.77;14.38;;;;;;;;;;5070328;28;20925;-54
2023/06/18 03:44:47;;;;;;;17.42;15.93;;;;;;;;;;5069936;28;20219;-52
2023/06/18 03:47:14;;;;;;;15.43;14.10;;;;;;;;;;5072566;28;20222;-52
2023/06/18 03:49:40;;;;;;;15.85;14.45;;;;;;;;;;5062785;28;20240;-53
2023/06/18 03:52:07;;;;;;;15.13;13.63;;;;;;;;;;5072727;28;20732;-53
2023/06/18 03:54:34;;;;;;;15.23;13.93;;;;;;;;;;5076299;28;20325;-54
2023/06/18 03:57:00;;;;;;;16.05;14.65;;;;;;;;;;5070342;28;20294;-54
2023/06/18 03:59:28;;;;;;;14.75;13.35;;;;;;;;;;5074613;28;20227;-53
2023/06/18 04:01:55;;;;;;;14.43;13.23;;;;;;;;;;5066127;28;20247;-53
2023/06/18 04:04:21;;;;;;;17.05;15.38;;;;;;;;;;5069976;28;20264;-53
2023/06/18 04:06:47;;;;;;;14.88;13.55;;;;;;;;;;5071167;28;20771;-53
2023/06/18 04:09:14;;;;;;;16.23;14.82;;;;;;;;;;5074966;28;20287;-53
2023/06/18 04:11:42;;;;;;;16.73;15.15;;;;;;;;;;5075163;28;20293;-53
2023/06/18 04:14:09;;;;;;;15.32;14.02;;;;;;;;;;5076425;28;20231;-54
2023/06/18 04:16:37;;;;;;;15.82;14.52;;;;;;;;;;5058965;28;20263;-53
2023/06/18 04:19:03;;;;;;;16.27;14.80;;;;;;;;;;5072587;28;20236;-53
2023/06/18 04:21:30;;;;;;;16.65;15.25;;;;;;;;;;5061933;28;20289;-54
2023/06/18 04:23:56;;;;;;;16.63;15.13;;;;;;;;;;5058404;28;20595;-53
2023/06/18 04:26:23;;;;;;;16.05;14.65;;;;;;;;;;5059401;28;20258;-52
2023/06/18 04:28:49;;;;;;;16.70;15.25;;;;;;;;;;5066327;28;20251;-52
2023/06/18 04:31:16;;;;;;;16.38;14.88;;;;;;;;;;5061813;28;20669;-53
2023/06/18 04:33:43;;;;;;;17.27;15.52;;;;;;;;;;5072194;28;20255;-52
2023/06/18 04:36:10;;;;;;;16.58;15.02;;;;;;;;;;5058452;28;20227;-53
2023/06/18 04:38:36;;;;;;;16.17;14.63;;;;;;;;;;5065249;28;20227;-53
2023/06/18 04:41:03;;;;;;;17.42;15.70;;;;;;;;;;5064667;28;20235;-53
2023/06/18 04:43:29;;;;;;;17.90;16.25;;;;;;;;;;5058552;28;20239;-53
2023/06/18 04:45:55;;;;;;;16.35;14.93;;;;;;;;;;5057169;28;20234;-53
2023/06/18 04:48:22;;;;;;;16.15;14.68;;;;;;;;;;5056739;28;20660;-53
2023/06/18 04:50:50;;;;;;;15.73;14.27;;;;;;;;;;5066030;28;20235;-54
2023/06/18 04:53:16;;;;;;;15.88;14.32;;;;;;;;;;5064818;28;20265;-53
2023/06/18 04:55:43;;;;;;;17.17;15.65;;;;;;;;;;5072560;28;20332;-53
2023/06/18 04:58:10;;;;;;;15.27;13.98;;;;;;;;;;5070859;28;20228;-53
2023/06/18 05:00:36;;;;;;;17.95;16.25;;;;;;;;;;5062315;28;20235;-53
2023/06/18 05:03:04;;;;;;;17.25;15.68;;;;;;;;;;5061030;28;20724;-53
2023/06/18 05:05:31;;;;;;;16.90;15.38;;;;;;;;;;5055394;28;20231;-53
2023/06/18 05:07:58;;;;;;;18.08;16.27;;;;;;;;;;5064513;28;20309;-53
2023/06/18 05:10:25;;;;;;;16.63;15.07;;;;;;;;;;5058379;28;20606;-54
2023/06/18 05:12:51;;;;;;;18.38;16.67;;;;;;;;;;5066366;28;20244;-53
2023/06/18 05:15:18;;;;;;;18.30;16.67;;;;;;;;;;5060443;28;20311;-53
2023/06/18 05:17:44;;;;;;;16.13;14.63;;;;;;;;;;5066778;28;20792;-53
2023/06/18 05:20:11;;;;;;;17.35;15.75;;;;;;;;;;5067647;28;21500;-54
2023/06/18 05:22:39;;;;;;;16.45;14.82;;;;;;;;;;5076425;28;20230;-53
2023/06/18 05:25:07;;;;;;;13.95;12.57;;;;;;;;;;5068332;28;20247;-53
2023/06/18 05:27:34;;;;;;;13.80;12.60;;;;;;;;;;5066419;28;20322;-53
2023/06/18 05:30:00;;;;;;;15.02;13.48;;;;;;;;;;5059262;28;20246;-52
2023/06/18 05:32:26;;;;;;;13.60;12.40;;;;;;;;;;5068544;28;20314;-53
2023/06/18 05:34:55;;;;;;;14.95;13.55;;;;;;;;;;5077133;28;20633;-53
2023/06/18 05:37:21;;;;;;;12.07;10.88;;;;;;;;;;5076797;28;20269;-52
2023/06/18 05:39:47;;;;;;;14.95;13.50;;;;;;;;;;5076671;28;20228;-54
2023/06/18 05:42:15;;;;;;;12.45;11.25;;;;;;;;;;5073120;28;20719;-53
2023/06/18 05:44:41;;;;;;;9.82;9.00;;;;;;;;;;5060529;28;20227;-53
2023/06/18 05:47:08;;;;;;;12.02;10.90;;;;;;;;;;5076043;28;20251;-53
2023/06/18 05:49:34;;;;;;;11.50;10.50;;;;;;;;;;5070529;28;20703;-54
2023/06/18 05:52:01;;;;;;;11.65;10.65;;;;;;;;;;5074576;28;20230;-53
2023/06/18 05:54:27;;;;;;;8.43;7.63;;;;;;;;;;5068457;28;20313;-53
2023/06/18 05:56:54;;;;;;;8.32;7.63;;;;;;;;;;5075195;28;20340;-54
2023/06/18 05:59:22;;;;;;;10.70;9.60;;;;;;;;;;5076442;28;20757;-53
2023/06/18 06:01:48;;;;;;;9.00;8.23;;;;;;;;;;5066190;28;20238;-52
2023/06/18 06:04:15;;;;;;;9.55;8.65;;;;;;;;;;5071556;28;20764;-52
2023/06/18 06:06:41;;;;;;;9.80;9.00;;;;;;;;;;5063923;28;20226;-54
2023/06/18 06:09:08;;;;;;;8.32;7.63;;;;;;;;;;5075028;28;20235;-53
2023/06/18 06:11:36;;;;;;;8.05;7.35;;;;;;;;;;5069970;28;20296;-52
2023/06/18 06:14:03;;;;;;;7.28;6.63;;;;;;;;;;5074804;28;20222;-53
2023/06/18 06:16:31;;;;;;;5.63;5.22;;;;;;;;;;5066712;28;20326;-54
2023/06/18 06:18:57;;;;;;;7.53;6.93;;;;;;;;;;5072879;28;20227;-54
2023/06/18 06:21:23;;;;;;;7.22;6.57;;;;;;;;;;5072403;28;20231;-53
2023/06/18 06:23:50;;;;;;;6.05;5.53;;;;;;;;;;5067713;28;20239;-54
2023/06/18 06:26:16;;;;;;;6.43;5.90;;;;;;;;;;5072282;28;20254;-54
2023/06/18 06:28:43;;;;;;;7.55;6.93;;;;;;;;;;5066518;28;20770;-53
2023/06/18 06:31:09;;;;;;;7.13;6.10;;;;;;;;;;5069532;28;20258;-53
2023/06/18 06:33:37;;;;;;;6.85;6.38;;;;;;;;;;5068453;28;20238;-54
2023/06/18 06:36:03;;;;;;;7.25;6.53;;;;;;;;;;5071576;28;20231;-54
2023/06/18 06:38:30;;;;;;;8.05;6.68;;;;;;;;;;5071249;28;20227;-53
2023/06/18 06:40:56;;;;;;;6.55;6.05;;;;;;;;;;5069716;28;20251;-53
2023/06/18 06:43:22;;;;;;;8.13;7.43;;;;;;;;;;5069764;28;20397;-53
2023/06/18 06:45:49;;;;;;;7.10;6.50;;;;;;;;;;5073224;28;20231;-53
2023/06/18 06:48:15;;;;;;;6.20;5.60;;;;;;;;;;5072698;28;20228;-54
2023/06/18 06:50:43;;;;;;;7.50;6.90;;;;;;;;;;5062553;28;20239;-53
2023/06/18 06:53:10;;;;;;;7.45;6.78;;;;;;;;;;5070571;28;20231;-54
2023/06/18 06:55:36;;;;;;;7.53;6.85;;;;;;;;;;5066623;28;20231;-54
2023/06/18 06:58:02;;;;;;;6.38;5.88;;;;;;;;;;5068947;28;20241;-54
2023/06/18 07:00:29;;;;;;;7.70;7.07;;;;;;;;;;5067834;28;20325;-53
2023/06/18 07:02:55;;;;;;;6.90;6.38;;;;;;;;;;5066783;28;20239;-60
2023/06/18 07:05:22;;;;;;;8.30;7.60;;;;;;;;;;5065830;28;20242;-54
2023/06/18 07:07:50;;;;;;;6.95;6.35;;;;;;;;;;5064633;27;20235;-53
2023/06/18 07:10:16;;;;;;;6.60;6.05;;;;;;;;;;5064638;28;20231;-53
2023/06/18 07:12:43;;;;;;;7.15;6.55;;;;;;;;;;5062069;28;20246;-54
2023/06/18 07:15:10;;;;;;;8.55;7.88;;;;;;;;;;5066607;28;20880;-53
2023/06/18 07:17:36;;;;;;;7.45;6.85;;;;;;;;;;5067279;28;20723;-54
2023/06/18 07:20:03;;;;;;;9.95;9.05;;;;;;;;;;5066294;28;20314;-54
2023/06/18 07:22:29;;;;;;;9.57;8.88;;;;;;;;;;5066601;28;20246;-54
2023/06/18 07:24:58;;;;;;;8.48;7.78;;;;;;;;;;5069813;28;20254;-54
2023/06/18 07:27:24;;;;;;;8.15;7.45;;;;;;;;;;5073194;28;20237;-53
2023/06/18 07:29:51;;;;;;;7.18;6.68;;;;;;;;;;5069888;28;20310;-54
2023/06/18 07:32:17;;;;;;;9.35;8.55;;;;;;;;;;5065412;28;20241;-54
2023/06/18 07:34:44;;;;;;;7.95;7.25;;;;;;;;;;5067556;28;20237;-54
2023/06/18 07:37:10;;;;;;;7.80;7.10;;;;;;;;;;5066403;28;20220;-55
2023/06/18 07:39:36;;;;;;;9.10;8.20;;;;;;;;;;5077335;28;20257;-54
2023/06/18 07:42:04;;;;;;;7.90;7.20;;;;;;;;;;5074268;28;20227;-54
2023/06/18 07:44:31;;;;;;;8.98;8.18;;;;;;;;;;5073469;28;20236;-54
2023/06/18 07:46:57;;;;;;;7.43;6.82;;;;;;;;;;5068259;28;20730;-54
2023/06/18 07:49:24;;;;;;;8.50;7.80;;;;;;;;;;5067321;28;20230;-54
2023/06/18 07:51:50;;;;;;;7.82;7.05;;;;;;;;;;5058850;28;20247;-54
2023/06/18 07:54:17;;;;;;;7.45;6.90;;;;;;;;;;5065053;28;20231;-54
2023/06/18 07:56:43;;;;;;;8.48;7.78;;;;;;;;;;5066807;28;20322;-55
2023/06/18 07:59:11;;;;;;;7.25;6.65;;;;;;;;;;5064261;28;20698;-54
2023/06/18 08:01:37;;;;;;;5.97;5.47;;;;;;;;;;5061785;28;20246;-53
2023/06/18 08:04:04;;;;;;;6.00;5.50;;;;;;;;;;5061645;28;20239;-54
2023/06/18 08:06:30;;;;;;;5.28;4.88;;;;;;;;;;5067791;28;20318;-54
2023/06/18 08:08:57;;;;;;;7.13;5.65;;;;;;;;;;5064860;28;20337;-54
2023/06/18 08:11:23;;;;;;;5.78;5.28;;;;;;;;;;5062998;28;20247;-55
2023/06/18 08:13:50;;;;;;;6.75;6.03;;;;;;;;;;5063766;28;20238;-54
2023/06/18 08:16:18;;;;;;;6.47;5.97;;;;;;;;;;5066246;28;20250;-53
2023/06/18 08:18:44;;;;;;;6.18;5.47;;;;;;;;;;5062198;28;20304;-55
2023/06/18 08:21:11;;;;;;;9.32;6.43;;;;;;;;;;5063177;28;20617;-53
2023/06/18 08:23:38;;;;;;;8.10;6.82;;;;;;;;;;5060291;28;20718;-54
2023/06/18 08:26:04;;;;;;;6.60;6.05;;;;;;;;;;5058611;28;20329;-53
2023/06/18 08:28:30;;;;;;;6.63;5.53;;;;;;;;;;5063143;28;20805;-53
2023/06/18 08:30:57;;;;;;;5.88;5.47;;;;;;;;;;5064936;28;20317;-54
2023/06/18 08:33:24;;;;;;;5.90;5.47;;;;;;;;;;5064237;28;20325;-54
2023/06/18 08:35:51;;;;;;;5.65;5.15;;;;;;;;;;5061250;28;20237;-54
2023/06/18 08:38:17;;;;;;;5.57;5.07;;;;;;;;;;5063024;28;20235;-54
2023/06/18 08:40:49;;;;;;;5.40;5.00;;;;;;;;;;5063160;28;20231;-54
2023/06/18 08:43:21;;;;;;;5.00;4.60;;;;;;;;;;5058164;28;20233;-55
2023/06/18 08:45:48;;;;;;;5.18;4.68;;;;;;;;;;5063502;28;20310;-55
2023/06/18 08:48:14;;;;;;;5.38;4.97;;;;;;;;;;5061204;28;20231;-55
2023/06/18 08:50:43;;;;;;;6.45;5.97;;;;;;;;;;5063490;28;20242;-53
2023/06/18 08:53:13;;;;;;;5.95;5.35;;;;;;;;;;5065335;28;20242;-54
2023/06/18 08:55:40;;;;;;;6.15;5.32;;;;;;;;;;5060873;28;20307;-55
2023/06/18 08:58:11;;;;;;;5.88;5.38;;;;;;;;;;5059752;28;20638;-54
2023/06/18 09:00:38;;;;;;;7.25;6.65;;;;;;;;;;5064080;28;20256;-54
2023/06/18 09:03:04;;;;;;;6.03;5.43;;;;;;;;;;5063799;28;20258;-54
2023/06/18 09:05:31;;;;;;;8.07;5.03;;;;;;;;;;5058972;28;20334;-54
2023/06/18 09:07:59;;;;;;;5.68;5.28;;;;;;;;;;5060491;28;20238;-55
2023/06/18 09:10:26;;;;;;;6.55;5.78;;;;;;;;;;5059049;28;20235;-54
2023/06/18 09:12:52;;;;;;;6.75;6.15;;;;;;;;;;5063537;28;20834;-54
2023/06/18 09:15:19;;;;;;;5.93;5.32;;;;;;;;;;5060924;28;20227;-54
2023/06/18 09:17:49;;;;;;;5.53;5.07;;;;;;;;;;5061921;28;20231;-54
2023/06/18 09:20:18;;;;;;;7.57;6.25;;;;;;;;;;5062955;28;20623;-56
2023/06/18 09:22:46;;;;;;;7.40;5.75;;;;;;;;;;5060421;28;20236;-54
2023/06/18 09:25:18;;;;;;;5.97;5.57;;;;;;;;;;5061524;28;20237;-54
2023/06/18 09:27:45;;;;;;;6.20;5.60;;;;;;;;;;5061044;28;20313;-59
2023/06/18 09:30:18;;;;;;;4.93;4.53;;;;;;;;;;5066289;28;20243;-54
2023/06/18 09:32:45;;;;;;;6.65;6.05;;;;;;;;;;5062057;28;20232;-55
2023/06/18 09:35:13;;;;;;;5.30;4.90;;;;;;;;;;5062791;28;20238;-55
2023/06/18 09:37:40;;;;;;;6.13;5.53;;;;;;;;;;5059853;28;20227;-54
2023/06/18 09:40:08;;;;;;;6.38;5.78;;;;;;;;;;5059282;28;20231;-54
2023/06/18 09:42:36;;;;;;;4.95;4.57;;;;;;;;;;5060804;28;20239;-55
2023/06/18 09:45:04;;;;;;;5.45;5.05;;;;;;;;;;5059721;28;20257;-54
2023/06/18 09:47:30;;;;;;;5.60;5.13;;;;;;;;;;5066858;28;20224;-56
2023/06/18 09:49:57;;;;;;;5.38;4.97;;;;;;;;;;5066191;28;20231;-55
2023/06/18 09:52:24;;;;;;;5.25;4.85;;;;;;;;;;5063509;28;20239;-54
2023/06/18 09:54:51;;;;;;;4.50;4.15;;;;;;;;;;5061694;28;20224;-55
2023/06/18 09:57:17;;;;;;;5.57;5.13;;;;;;;;;;5064014;28;20251;-53
2023/06/18 09:59:45;;;;;;;6.60;5.00;;;;;;;;;;5064403;28;20235;-54
2023/06/18 10:02:13;;;;;;;5.93;5.50;;;;;;;;;;5066532;28;20409;-53
2023/06/18 10:04:39;;;;;;;5.72;5.25;;;;;;;;;;5066191;28;20243;-54
2023/06/18 10:07:07;;;;;;;5.20;4.80;;;;;;;;;;5066384;28;20837;-54
2023/06/18 10:09:36;;;;;;;5.78;4.70;;;;;;;;;;5065988;28;20239;-54
2023/06/18 10:12:04;;;;;;;5.60;5.10;;;;;;;;;;5062317;28;20258;-55
2023/06/18 10:14:31;;;;;;;6.05;5.55;;;;;;;;;;5063794;28;20711;-54
2023/06/18 10:17:03;;;;;;;5.95;5.45;;;;;;;;;;5067057;28;20231;-54
2023/06/18 10:19:32;;;;;;;6.05;5.57;;;;;;;;;;5069378;28;20772;-54
2023/06/18 10:21:59;;;;;;;5.72;4.82;;;;;;;;;;5066558;28;20755;-54
2023/06/18 10:24:30;;;;;;;5.07;4.72;;;;;;;;;;5070154;28;20302;-54
2023/06/18 10:26:57;;;;;;;5.38;4.60;;;;;;;;;;5065414;28;20850;-55
2023/06/18 10:29:24;;;;;;;5.72;5.20;;;;;;;;;;5069422;28;20731;-54
2023/06/18 10:31:51;;;;;;;4.63;4.22;;;;;;;;;;5063495;28;20759;-54
2023/06/18 10:34:20;;;;;;;5.55;4.90;;;;;;;;;;5065637;28;20250;-55
2023/06/18 10:36:46;;;;;;;5.10;4.68;;;;;;;;;;5065008;28;20227;-56
2023/06/18 10:39:13;;;;;;;5.38;4.88;;;;;;;;;;5064002;28;20237;-54
2023/06/18 10:41:44;;;;;;;4.55;4.25;;;;;;;;;;5064321;28;20246;-55
2023/06/18 10:44:11;;;;;;;7.88;5.40;;;;;;;;;;5069655;28;20241;-54
2023/06/18 10:46:37;;;;;;;5.53;4.72;;;;;;;;;;5067614;28;20235;-55
2023/06/18 10:49:14;;;;;;;6.85;5.65;;;;;;;;;;5066269;28;20259;-55
2023/06/18 10:51:43;;;;;;;5.30;4.80;;;;;;;;;;5060665;28;20238;-54
2023/06/18 10:54:19;;;;;;;4.07;3.78;;;;;;;;;;5063566;28;20274;-55
2023/06/18 10:56:50;;;;;;;4.20;3.92;;;;;;;;;;5064298;28;20254;-55
2023/06/18 10:59:16;;;;;;;3.92;3.60;;;;;;;;;;5066482;28;20716;-54
2023/06/18 11:01:43;;;;;;;4.93;4.53;;;;;;;;;;5066735;28;20250;-53
2023/06/18 11:04:09;;;;;;;4.43;4.03;;;;;;;;;;5066659;28;20792;-55
2023/06/18 11:06:36;;;;;;;4.35;4.05;;;;;;;;;;5062609;28;20318;-55
2023/06/18 11:09:12;;;;;;;3.28;3.08;;;;;;;;;;5065511;28;20230;-55
2023/06/18 11:11:49;;;;;;;4.05;3.80;;;;;;;;;;5067700;28;20632;-55
2023/06/18 11:14:19;;;;;;;4.90;4.00;;;;;;;;;;5068090;28;20295;-54
2023/06/18 11:17:08;;;;;;;4.63;4.22;;;;;;;;;;5068020;28;20235;-55
2023/06/18 11:19:35;;;;;;;4.25;3.92;;;;;;;;;;5062484;28;20227;-55
2023/06/18 11:22:01;;;;;;;4.38;3.72;;;;;;;;;;5060583;28;20231;-54
2023/06/18 11:24:29;;;;;;;5.05;4.13;;;;;;;;;;5068577;28;20329;-55
2023/06/18 11:26:56;;;;;;;4.32;3.97;;;;;;;;;;5069536;28;20254;-55
2023/06/18 11:29:22;;;;;;;4.00;3.70;;;;;;;;;;5067284;28;20223;-58
2023/06/18 11:31:49;;;;;;;4.00;3.63;;;;;;;;;;5066142;28;20230;-54
2023/06/18 11:34:15;;;;;;;4.07;3.78;;;;;;;;;;5068537;28;20304;-55
2023/06/18 11:36:42;;;;;;;4.13;3.83;;;;;;;;;;5064904;28;20326;-53
2023/06/18 11:39:09;;;;;;;5.03;4.53;;;;;;;;;;5063393;28;20234;-54
2023/06/18 11:41:37;;;;;;;4.43;4.13;;;;;;;;;;5063975;28;20803;-54
2023/06/18 11:44:03;;;;;;;4.50;4.10;;;;;;;;;;5066330;28;20231;-54
2023/06/18 11:46:30;;;;;;;4.57;4.15;;;;;;;;;;5064839;28;20258;-57
2023/06/18 11:48:58;;;;;;;5.30;4.20;;;;;;;;;;5065321;28;20227;-54
2023/06/18 11:51:25;;;;;;;4.55;4.13;;;;;;;;;;5060485;28;20305;-54
2023/06/18 11:53:53;;;;;;;4.30;3.90;;;;;;;;;;5067778;28;20242;-54
2023/06/18 11:56:22;;;;;;;5.60;5.10;;;;;;;;;;5069118;28;20231;-54
2023/06/18 11:58:50;;;;;;;6.18;5.68;;;;;;;;;;5064879;28;20238;-54
2023/06/18 12:01:16;;;;;;;6.60;5.78;;;;;;;;;;5071696;28;20319;-54
2023/06/18 12:03:43;;;;;;;4.85;4.53;;;;;;;;;;5076712;28;20322;-55
2023/06/18 12:06:12;;;;;;;4.47;4.18;;;;;;;;;;5069405;28;20258;-54
2023/06/18 12:08:43;;;;;;;8.38;6.72;;;;;;;;;;5072623;28;20231;-56
2023/06/18 12:11:13;;;;;;;5.85;5.45;;;;;;;;;;5063801;28;20234;-55
2023/06/18 12:13:42;;;;;;;4.47;4.18;;;;;;;;;;5061121;28;20717;-55
2023/06/18 12:16:12;;;;;;;3.85;3.65;;;;;;;;;;5068170;28;20305;-54
2023/06/18 12:18:39;;;;;;;4.30;3.95;;;;;;;;;;5062893;28;20246;-54
2023/06/18 12:21:06;;;;;;;4.60;3.80;;;;;;;;;;5065676;28;20946;-55
2023/06/18 12:23:32;;;;;;;4.38;4.07;;;;;;;;;;5061038;28;20711;-55
2023/06/18 12:25:59;;;;;;;3.80;3.53;;;;;;;;;;5068628;28;20243;-55
2023/06/18 12:28:25;;;;;;;4.80;4.40;;;;;;;;;;5068720;28;20245;-56
2023/06/18 12:30:52;;;;;;;4.25;3.92;;;;;;;;;;5063930;28;20231;-56
2023/06/18 12:33:20;;;;;;;4.45;4.05;;;;;;;;;;5057386;28;20249;-55
2023/06/18 12:35:48;;;;;;;3.88;3.58;;;;;;;;;;5062835;28;20238;-55
2023/06/18 12:38:15;;;;;;;4.78;4.30;;;;;;;;;;5059696;28;20230;-55
2023/06/18 12:40:46;;;;;;;4.32;3.92;;;;;;;;;;5061761;28;20605;-56
2023/06/18 12:43:13;;;;;;;3.88;3.60;;;;;;;;;;5061838;28;20249;-54
2023/06/18 12:45:41;;;;;;;4.65;4.25;;;;;;;;;;5066114;28;20234;-55
2023/06/18 12:48:11;;;;;;;5.25;4.80;;;;;;;;;;5064210;28;20222;-54
2023/06/18 12:50:43;;;;;;;5.18;4.70;;;;;;;;;;5061499;28;20250;-56
2023/06/18 12:53:13;;;;;;;5.65;5.13;;;;;;;;;;5061841;28;20291;-56
2023/06/18 12:55:40;;;;;;;4.68;4.28;;;;;;;;;;5065401;28;20230;-56
2023/06/18 12:58:14;;;;;;;5.72;5.30;;;;;;;;;;5062155;28;20248;-56
2023/06/18 13:00:41;;;;;;;4.93;4.53;;;;;;;;;;5062145;28;20468;-54
2023/06/18 13:03:08;;;;;;;4.90;4.50;;;;;;;;;;5063714;28;20246;-55
2023/06/18 13:05:35;;;;;;;4.10;3.80;;;;;;;;;;5068991;28;20247;-56
2023/06/18 13:08:03;;;;;;;4.18;3.78;;;;;;;;;;5065722;28;20234;-55
2023/06/18 13:10:30;;;;;;;4.75;4.43;;;;;;;;;;5067933;28;20231;-55
2023/06/18 13:12:56;;;;;;;4.40;4.10;;;;;;;;;;5066141;28;20241;-55
2023/06/18 13:15:22;;;;;;;4.57;4.18;;;;;;;;;;5064898;28;20262;-55
2023/06/18 13:17:49;;;;;;;4.60;4.30;;;;;;;;;;5057441;28;20304;-54
2023/06/18 13:20:16;;;;;;;4.50;4.20;;;;;;;;;;5060420;28;20235;-55
2023/06/18 13:22:42;;;;;;;5.03;4.63;;;;;;;;;;5062287;28;20255;-55
2023/06/18 13:25:10;;;;;;;4.85;4.45;;;;;;;;;;5065630;28;20290;-55
2023/06/18 13:27:37;;;;;;;4.50;4.20;;;;;;;;;;5069541;28;20227;-55
2023/06/18 13:30:03;;;;;;;5.18;4.78;;;;;;;;;;5069866;28;20231;-54
2023/06/18 13:32:30;;;;;;;4.93;4.55;;;;;;;;;;5061034;28;20239;-56
2023/06/18 13:34:57;;;;;;;4.40;4.00;;;;;;;;;;5069594;28;20238;-54
2023/06/18 13:37:23;;;;;;;6.90;4.57;;;;;;;;;;5066090;28;20289;-55
2023/06/18 13:39:50;;;;;;;5.57;5.07;;;;;;;;;;5062523;28;20235;-56
2023/06/18 13:42:18;;;;;;;5.03;4.63;;;;;;;;;;5065544;28;20234;-54
2023/06/18 13:44:44;;;;;;;4.65;4.25;;;;;;;;;;5066858;28;20230;-54
2023/06/18 13:47:11;;;;;;;5.10;4.70;;;;;;;;;;5062559;28;20310;-56
2023/06/18 13:49:37;;;;;;;4.68;4.32;;;;;;;;;;5065385;28;20856;-55
2023/06/18 13:52:04;;;;;;;5.20;4.80;;;;;;;;;;5066252;28;20226;-55
2023/06/18 13:54:31;;;;;;;4.15;3.85;;;;;;;;;;5067554;28;20223;-56
2023/06/18 13:56:57;;;;;;;4.40;4.10;;;;;;;;;;5060380;28;20228;-55
2023/06/18 13:59:26;;;;;;;4.25;3.95;;;;;;;;;;5067078;28;20617;-55
2023/06/18 14:01:52;;;;;;;4.53;4.13;;;;;;;;;;5070856;28;20231;-55
2023/06/18 14:04:19;;;;;;;4.53;4.22;;;;;;;;;;5068307;28;20241;-54
2023/06/18 14:06:45;;;;;;;4.35;4.00;;;;;;;;;;5069857;28;20288;-56
2023/06/18 14:09:14;;;;;;;4.45;4.10;;;;;;;;;;5071592;28;20259;-55
2023/06/18 14:11:40;;;;;;;4.22;3.92;;;;;;;;;;5068608;28;20480;-55
2023/06/18 14:14:07;;;;;;;5.53;5.13;;;;;;;;;;5062303;28;20234;-54
2023/06/18 14:16:35;;;;;;;9.82;7.80;;;;;;;;;;5062412;28;20247;-55
2023/06/18 14:19:02;;;;;;;7.55;6.93;;;;;;;;;;5063759;28;20715;-55
2023/06/18 14:21:29;;;;;;;5.82;5.43;;;;;;;;;;5066083;28;20239;-54
2023/06/18 14:23:55;;;;;;;5.95;5.43;;;;;;;;;;5069349;28;20231;-55
2023/06/18 14:26:23;;;;;;;6.57;5.97;;;;;;;;;;5068588;28;20235;-55
2023/06/18 14:28:50;;;;;;;9.95;8.93;;;;;;;;;;5064885;28;20232;-55
2023/06/18 14:31:17;;;;;;;7.68;6.90;;;;;;;;;;5064893;28;20300;-54
2023/06/18 14:33:45;;;;;;;5.55;5.15;;;;;;;;;;5064921;28;20334;-54